In Rescue
 
Open Full Screen Window  High Contrast Mode
Wind Gusting 00 knots
08
January 18, 2019 8:30 AM EST
Weather Information
Wind Direction
  290 °
Wind Speed
  08 kt (9 mph)
Wind Gust
  00 kt (0 mph)
Altimeter
30.05 in
Visibility
4 SM
Temperature
-01° C
30° F
Dewpoint
-02° C
28° F
Humidity
93%
1hr Rain Fall
00.00 in.
24hr Rain Fall
00.01 in.
Sky Condition
Overcast @ 400 ft
LIFR

METAR KPOV 181330Z AUTO 29008KT 4SM OVC004 M01/M02 A3005 RMK AO2 T10101016 PWINO

FAA Disclaimer: The data displayed is for advisory purposes only and is not to be used for flight planning or operations.